createdAt,value
2022-11-21T00:01:29.132Z,1.07
2022-11-21T00:03:30.859Z,1.08
2022-11-21T00:05:33.193Z,1.15
2022-11-21T00:07:35.230Z,1.25
2022-11-21T00:09:36.969Z,1.05
2022-11-21T00:11:38.649Z,0.90
2022-11-21T00:13:40.445Z,1.30
2022-11-21T00:15:42.669Z,0.90
2022-11-21T00:17:44.428Z,1.05
2022-11-21T00:19:46.122Z,1.00
2022-11-21T00:21:47.809Z,1.10
2022-11-21T00:23:49.533Z,1.03
2022-11-21T00:25:51.274Z,1.07
2022-11-21T00:27:53.371Z,1.07
2022-11-21T00:29:55.087Z,1.13
2022-11-21T00:31:56.832Z,1.05
2022-11-21T00:33:58.811Z,1.37
2022-11-21T00:36:08.129Z,1.10
2022-11-21T00:38:09.881Z,1.10
2022-11-21T00:40:12.034Z,1.00
2022-11-21T00:42:14.091Z,0.80
2022-11-21T00:44:15.796Z,1.00
2022-11-21T00:46:17.532Z,1.13
2022-11-21T00:48:19.197Z,1.20
2022-11-21T00:50:20.939Z,1.20
2022-11-21T00:52:22.647Z,0.80
2022-11-21T00:54:24.823Z,1.03
2022-11-21T00:56:26.724Z,0.93
2022-11-21T00:58:28.725Z,1.05
2022-11-21T01:00:30.479Z,0.95
2022-11-21T01:02:33.120Z,1.10
2022-11-21T01:06:39.936Z,1.17
2022-11-21T01:08:44.240Z,1.00
2022-11-21T01:10:46.014Z,0.82
2022-11-21T01:12:47.772Z,0.83
2022-11-21T01:14:49.994Z,1.20
2022-11-21T01:16:51.733Z,1.00
2022-11-21T01:18:53.688Z,1.07
2022-11-21T01:20:58.854Z,1.15
2022-11-21T01:23:00.584Z,0.93
2022-11-21T01:25:02.366Z,1.37
2022-11-21T01:27:04.109Z,1.27
2022-11-21T01:29:07.093Z,1.00
2022-11-21T01:31:21.163Z,1.00
2022-11-21T01:33:22.852Z,1.10
2022-11-21T01:35:25.774Z,1.20
2022-11-21T01:37:27.492Z,1.15
2022-11-21T01:39:29.227Z,1.00
2022-11-21T01:41:43.526Z,1.20
2022-11-21T01:43:46.483Z,1.00
2022-11-21T01:45:55.290Z,1.10
2022-11-21T01:47:57.024Z,1.30
2022-11-21T01:49:58.734Z,1.07
2022-11-21T01:52:08.320Z,1.27
2022-11-21T01:54:28.177Z,1.30
2022-11-21T01:56:34.252Z,1.00
2022-11-21T01:58:37.624Z,1.10
2022-11-21T02:00:40.611Z,1.25
2022-11-21T02:02:52.764Z,1.10
2022-11-21T02:04:55.833Z,1.10
2022-11-21T02:06:59.797Z,1.10
2022-11-21T02:09:01.918Z,1.10
2022-11-21T02:11:28.652Z,1.20
2022-11-21T02:13:30.415Z,1.23
2022-11-21T02:15:32.139Z,1.30
2022-11-21T02:17:34.008Z,1.00
2022-11-21T02:20:06.660Z,1.00
2022-11-21T02:22:38.394Z,1.27
2022-11-21T02:24:48.784Z,1.40
2022-11-21T02:26:50.755Z,1.00
2022-11-21T02:28:52.651Z,1.13
2022-11-21T02:30:54.360Z,1.20
2022-11-21T02:32:56.305Z,1.50
2022-11-21T02:34:57.999Z,1.20
2022-11-21T02:37:01.625Z,1.35
2022-11-21T02:39:05.644Z,1.58
2022-11-21T02:41:15.695Z,1.23
2022-11-21T02:43:28.426Z,1.30
2022-11-21T02:45:42.272Z,1.40
2022-11-21T02:47:45.138Z,1.30
2022-11-21T02:50:16.569Z,1.15
2022-11-21T02:52:18.516Z,1.13
2022-11-21T02:54:20.330Z,1.52
2022-11-21T02:56:22.057Z,1.42
2022-11-21T02:58:24.180Z,1.45
2022-11-21T03:00:25.916Z,1.23
2022-11-21T03:02:27.644Z,1.73
2022-11-21T03:04:30.254Z,1.37
2022-11-21T03:06:32.120Z,1.40
2022-11-21T03:08:33.867Z,1.17
2022-11-21T03:10:35.645Z,1.30
2022-11-21T03:12:38.973Z,1.10
2022-11-21T03:14:40.736Z,1.00
2022-11-21T03:16:42.519Z,1.30
2022-11-21T03:18:44.303Z,1.43
2022-11-21T03:20:45.985Z,1.10
2022-11-21T03:22:47.725Z,1.02
2022-11-21T03:24:49.410Z,1.20
2022-11-21T03:26:51.134Z,1.20
2022-11-21T03:28:52.809Z,1.00
2022-11-21T03:30:54.557Z,1.10
2022-11-21T03:32:56.996Z,1.10
2022-11-21T03:34:58.705Z,1.00
2022-11-21T03:37:00.418Z,1.40
2022-11-21T03:39:02.211Z,1.20
2022-11-21T03:41:27.053Z,1.20
2022-11-21T03:43:28.702Z,1.15
2022-11-21T03:45:30.389Z,1.10
2022-11-21T03:47:32.335Z,1.10
2022-11-21T03:49:34.077Z,1.13
2022-11-21T03:51:36.172Z,1.13
2022-11-21T03:53:37.874Z,1.30
2022-11-21T03:55:39.586Z,1.30
2022-11-21T03:57:41.290Z,1.20
2022-11-21T03:59:43.093Z,1.33
2022-11-21T04:01:44.893Z,1.58
2022-11-21T04:03:47.357Z,1.40
2022-11-21T04:05:49.235Z,1.08
2022-11-21T04:07:51.042Z,1.58
2022-11-21T04:09:52.752Z,1.20
2022-11-21T04:11:54.503Z,1.47
2022-11-21T04:13:56.360Z,1.47
2022-11-21T04:15:58.261Z,1.30
2022-11-21T04:18:00.085Z,1.10
2022-11-21T04:20:01.867Z,1.48
2022-11-21T04:22:03.688Z,1.20
2022-11-21T04:24:05.992Z,1.33
2022-11-21T04:26:07.709Z,1.20
2022-11-21T04:28:13.834Z,1.45
2022-11-21T04:30:15.809Z,1.27
2022-11-21T04:32:17.534Z,1.10
2022-11-21T04:34:19.241Z,1.27
2022-11-21T04:36:20.927Z,1.17
2022-11-21T04:38:22.675Z,1.20
2022-11-21T04:40:24.458Z,1.23
2022-11-21T04:42:26.201Z,1.23
2022-11-21T04:44:28.679Z,1.42
2022-11-21T04:46:30.506Z,1.30
2022-11-21T04:48:32.734Z,1.27
2022-11-21T04:50:34.454Z,1.60
2022-11-21T04:52:36.608Z,1.43
2022-11-21T04:54:38.358Z,1.50
2022-11-21T04:56:41.178Z,1.27
2022-11-21T04:58:44.543Z,1.40
2022-11-21T05:00:46.230Z,1.30
2022-11-21T05:02:48.175Z,1.33
2022-11-21T05:04:50.474Z,1.55
2022-11-21T05:06:52.154Z,1.42
2022-11-21T05:08:54.322Z,1.10
2022-11-21T05:11:14.828Z,1.40
2022-11-21T05:13:22.583Z,1.45
2022-11-21T05:15:25.028Z,1.40
2022-11-21T05:17:29.123Z,2.33
2022-11-21T05:19:30.805Z,1.60
2022-11-21T05:21:32.523Z,1.63
2022-11-21T05:23:34.246Z,1.90
2022-11-21T05:25:35.958Z,1.43
2022-11-21T05:27:37.680Z,1.67
2022-11-21T05:29:39.379Z,1.00
2022-11-21T05:31:41.102Z,1.33
2022-11-21T05:33:42.782Z,0.98
2022-11-21T05:35:44.624Z,1.07
2022-11-21T05:37:46.467Z,1.17
2022-11-21T05:39:48.183Z,1.08
2022-11-21T05:41:49.984Z,0.97
2022-11-21T05:43:51.695Z,1.00
2022-11-21T05:45:53.435Z,1.10
2022-11-21T05:47:55.224Z,1.27
2022-11-21T05:49:56.963Z,1.00
2022-11-21T05:51:58.702Z,1.40
2022-11-21T05:54:00.629Z,1.00
2022-11-21T05:56:07.447Z,1.17
2022-11-21T05:58:10.797Z,1.30
2022-11-21T06:00:13.141Z,1.40
2022-11-21T06:02:33.690Z,1.35
2022-11-21T06:04:35.618Z,1.00
2022-11-21T06:06:37.528Z,0.90
2022-11-21T06:08:44.777Z,0.90
2022-11-21T06:10:46.493Z,1.00
2022-11-21T06:12:48.217Z,1.37
2022-11-21T06:14:49.906Z,1.37
2022-11-21T06:16:51.635Z,1.27
2022-11-21T06:18:58.106Z,1.08
2022-11-21T06:21:05.563Z,1.20
2022-11-21T06:23:07.305Z,1.15
2022-11-21T06:25:09.401Z,1.50
2022-11-21T06:27:11.134Z,1.20
2022-11-21T06:29:12.876Z,1.10
2022-11-21T06:31:17.288Z,1.30
2022-11-21T06:33:19.939Z,1.25
2022-11-21T06:37:23.369Z,1.20
2022-11-21T06:39:25.158Z,1.00
2022-11-21T06:41:30.872Z,1.03
2022-11-21T06:43:32.731Z,1.13
2022-11-21T06:45:34.419Z,1.13
2022-11-21T06:47:36.368Z,1.30
2022-11-21T06:49:38.116Z,1.20
2022-11-21T06:51:39.931Z,1.17
2022-11-21T06:53:41.645Z,1.30
2022-11-21T06:55:43.344Z,1.13
2022-11-21T06:57:45.078Z,0.90
2022-11-21T06:59:46.829Z,1.00
2022-11-21T07:01:48.665Z,1.10
2022-11-21T07:03:50.477Z,1.00
2022-11-21T07:05:52.693Z,1.00
2022-11-21T07:08:01.619Z,1.10
2022-11-21T07:10:03.504Z,0.80
2022-11-21T07:12:24.043Z,0.90
2022-11-21T07:14:25.732Z,1.00
2022-11-21T07:16:30.717Z,1.00
2022-11-21T07:18:32.839Z,1.10
2022-11-21T07:20:34.590Z,1.10
2022-11-21T07:22:36.312Z,1.07
2022-11-21T07:24:38.057Z,1.03
2022-11-21T07:26:39.744Z,1.00
2022-11-21T07:28:41.644Z,1.00
2022-11-21T07:30:43.351Z,1.10
2022-11-21T07:32:45.085Z,1.20
2022-11-21T07:34:46.816Z,1.10
2022-11-21T07:36:48.481Z,1.00
2022-11-21T07:38:50.274Z,0.80
2022-11-21T07:40:53.028Z,1.00
2022-11-21T07:43:00.254Z,1.50
2022-11-21T07:45:02.006Z,1.17
2022-11-21T07:47:03.798Z,1.10
2022-11-21T07:49:05.477Z,0.90
2022-11-21T07:51:07.255Z,0.93
2022-11-21T07:53:11.463Z,1.00
2022-11-21T07:55:13.211Z,0.80
2022-11-21T07:57:14.957Z,1.07
2022-11-21T07:59:19.169Z,1.03
2022-11-21T08:01:21.305Z,1.00
2022-11-21T08:03:25.265Z,1.00
2022-11-21T08:05:27.113Z,0.80
2022-11-21T08:07:28.887Z,1.10
2022-11-21T08:09:30.728Z,1.20
2022-11-21T08:11:32.565Z,0.93
2022-11-21T08:13:35.256Z,1.10
2022-11-21T08:17:39.745Z,0.80
2022-11-21T08:19:41.433Z,0.90
2022-11-21T08:21:43.118Z,1.25
2022-11-21T08:23:44.919Z,0.80
2022-11-21T08:25:46.625Z,1.00
2022-11-21T08:27:48.345Z,1.02
2022-11-21T08:29:50.385Z,1.00
2022-11-21T08:31:52.103Z,1.15
2022-11-21T08:33:57.101Z,1.08
2022-11-21T08:35:58.951Z,1.00
2022-11-21T08:38:01.755Z,1.10
2022-11-21T08:40:03.819Z,1.00
2022-11-21T08:42:05.844Z,1.10
2022-11-21T08:44:12.623Z,1.23
2022-11-21T08:46:16.838Z,1.10
2022-11-21T08:48:18.539Z,1.67
2022-11-21T08:50:20.420Z,1.00
2022-11-21T08:52:22.131Z,0.93
2022-11-21T08:54:24.685Z,2.40
2022-11-21T08:56:26.650Z,0.90
2022-11-21T08:58:28.400Z,0.95
2022-11-21T09:00:30.101Z,0.97
2022-11-21T09:02:32.060Z,1.30
2022-11-21T09:04:33.865Z,0.90
2022-11-21T09:06:36.324Z,1.17
2022-11-21T09:08:38.241Z,1.20
2022-11-21T09:10:39.939Z,1.02
2022-11-21T09:12:41.715Z,1.30
2022-11-21T09:15:01.817Z,0.93
2022-11-21T09:17:22.223Z,0.85
2022-11-21T09:19:26.519Z,0.95
2022-11-21T09:21:28.450Z,1.00
2022-11-21T09:23:30.179Z,1.30
2022-11-21T09:25:32.079Z,0.93
2022-11-21T09:27:33.832Z,0.95
2022-11-21T09:29:35.549Z,0.70
2022-11-21T09:31:40.483Z,1.00
2022-11-21T09:33:42.216Z,1.00
2022-11-21T09:35:44.617Z,1.00
2022-11-21T09:37:47.029Z,1.27
2022-11-21T09:39:49.052Z,0.90
2022-11-21T09:42:20.377Z,1.05
2022-11-21T09:44:30.752Z,1.17
2022-11-21T09:46:39.326Z,1.25
2022-11-21T09:48:58.292Z,1.08
2022-11-21T09:51:06.541Z,0.80
2022-11-21T09:53:14.508Z,1.00
2022-11-21T09:55:35.222Z,0.93
2022-11-21T09:57:37.300Z,0.90
2022-11-21T09:59:40.481Z,1.05
2022-11-21T10:01:42.306Z,1.05
2022-11-21T10:03:47.565Z,1.10
2022-11-21T10:05:58.064Z,1.00
2022-11-21T10:08:07.400Z,1.05
2022-11-21T10:10:30.267Z,1.02
2022-11-21T10:12:37.774Z,1.15
2022-11-21T10:15:00.987Z,0.90
2022-11-21T10:19:22.396Z,1.00
2022-11-21T10:21:30.006Z,0.82
2022-11-21T10:23:51.543Z,1.25
2022-11-21T10:26:05.656Z,1.13
2022-11-21T10:28:28.247Z,1.10
2022-11-21T10:30:30.000Z,1.10
2022-11-21T10:32:44.116Z,1.30
2022-11-21T10:34:47.246Z,1.35
2022-11-21T10:36:54.011Z,1.40
2022-11-21T10:39:01.730Z,1.02
2022-11-21T10:41:44.588Z,1.10
2022-11-21T10:44:15.139Z,1.40
2022-11-21T10:46:16.835Z,1.48
2022-11-21T10:48:18.623Z,1.20
2022-11-21T10:50:51.575Z,1.03
2022-11-21T10:53:31.054Z,1.38
2022-11-21T10:55:32.777Z,1.25
2022-11-21T10:57:41.783Z,1.00
2022-11-21T11:00:03.060Z,1.10
2022-11-21T11:02:14.125Z,1.20
2022-11-21T11:04:40.704Z,1.20
2022-11-21T11:08:52.505Z,1.00
2022-11-21T11:11:12.262Z,1.23
2022-11-21T11:13:45.736Z,1.13
2022-11-21T11:16:02.921Z,1.67
2022-11-21T11:18:09.616Z,1.10
2022-11-21T11:20:33.416Z,1.23
2022-11-21T11:22:35.242Z,1.17
2022-11-21T11:24:37.147Z,1.40
2022-11-21T11:26:48.859Z,1.20
2022-11-21T11:28:51.385Z,1.20
2022-11-21T11:30:56.895Z,1.25
2022-11-21T11:32:58.622Z,1.10
2022-11-21T11:35:05.451Z,1.05
2022-11-21T11:37:17.264Z,1.30
2022-11-21T11:39:58.301Z,1.00
2022-11-21T11:42:47.133Z,1.05
2022-11-21T11:45:31.912Z,1.40
2022-11-21T11:47:42.553Z,1.30
2022-11-21T11:50:09.731Z,1.02
2022-11-21T11:52:13.525Z,1.20
2022-11-21T11:54:27.122Z,1.20
2022-11-21T11:56:33.249Z,1.13
2022-11-21T11:58:34.897Z,1.70
2022-11-21T12:00:46.038Z,1.35
2022-11-21T12:02:58.410Z,1.35
2022-11-21T12:05:09.145Z,1.30
2022-11-21T12:09:48.980Z,1.80
2022-11-21T12:12:15.391Z,1.52
2022-11-21T12:15:09.048Z,1.52
2022-11-21T12:17:11.766Z,1.50
2022-11-21T12:21:21.074Z,1.33
2022-11-21T12:23:39.964Z,1.40
2022-11-21T12:25:59.293Z,1.38
2022-11-21T12:28:01.730Z,1.40
2022-11-21T12:30:06.349Z,1.40
2022-11-21T12:32:50.524Z,1.27
2022-11-21T12:35:25.522Z,1.30
2022-11-21T12:38:04.972Z,1.20
2022-11-21T12:40:34.205Z,1.13
2022-11-21T12:42:50.728Z,1.20
2022-11-21T12:45:27.376Z,1.33
2022-11-21T12:48:09.167Z,1.30
2022-11-21T12:50:43.249Z,1.27
2022-11-21T12:53:08.606Z,1.20
2022-11-21T12:55:35.291Z,1.00
2022-11-21T12:58:15.593Z,1.13
2022-11-21T13:00:20.299Z,1.08
2022-11-21T13:02:59.659Z,0.90
2022-11-21T13:05:04.716Z,1.05
2022-11-21T13:07:07.458Z,1.00
2022-11-21T13:11:39.148Z,1.08
2022-11-21T13:13:47.229Z,1.48
2022-11-21T13:16:01.246Z,1.08
2022-11-21T13:18:23.116Z,1.05
2022-11-21T13:20:39.544Z,1.13
2022-11-21T13:22:41.461Z,1.40
2022-11-21T13:24:47.257Z,1.35
2022-11-21T13:26:53.150Z,1.17
2022-11-21T13:29:13.968Z,1.00
2022-11-21T13:31:29.882Z,1.05
2022-11-21T13:33:37.334Z,0.85
2022-11-21T13:35:39.008Z,1.10
2022-11-21T13:37:49.648Z,1.10
2022-11-21T13:39:51.511Z,1.23
2022-11-21T13:42:20.751Z,1.07
2022-11-21T13:44:31.528Z,1.00
2022-11-21T13:46:58.304Z,1.00
2022-11-21T13:49:10.008Z,1.10
2022-11-21T13:51:29.657Z,1.30
2022-11-21T13:53:58.047Z,1.00
2022-11-21T13:56:23.916Z,1.33
2022-11-21T13:58:47.049Z,0.90
2022-11-21T14:03:08.758Z,0.80
2022-11-21T14:06:10.323Z,1.00
2022-11-21T14:08:21.433Z,1.10
2022-11-21T14:10:33.988Z,1.35
2022-11-21T14:12:44.282Z,1.25
2022-11-21T14:15:08.434Z,1.45
2022-11-21T14:17:21.179Z,1.73
2022-11-21T14:19:23.162Z,2.30
2022-11-21T14:21:31.207Z,1.65
2022-11-21T14:23:34.600Z,1.77
2022-11-21T14:25:50.328Z,1.25
2022-11-21T14:27:55.675Z,1.10
2022-11-21T14:29:57.655Z,1.05
2022-11-21T14:31:59.370Z,1.00
2022-11-21T14:34:01.151Z,1.30
2022-11-21T14:36:22.398Z,1.10
2022-11-21T14:38:24.672Z,1.25
2022-11-21T14:40:26.346Z,1.20
2022-11-21T14:42:36.191Z,1.70
2022-11-21T14:44:37.964Z,1.17
2022-11-21T14:46:41.130Z,1.27
2022-11-21T14:48:42.992Z,1.33
2022-11-21T14:50:44.729Z,1.40
2022-11-21T14:52:47.133Z,1.00
2022-11-21T14:55:28.565Z,1.20
2022-11-21T14:57:30.024Z,1.35
2022-11-21T14:59:38.711Z,1.50
2022-11-21T15:01:46.311Z,1.25
2022-11-21T15:03:56.962Z,1.20
2022-11-21T15:06:04.478Z,1.20
2022-11-21T15:08:33.552Z,1.33
2022-11-21T15:10:35.604Z,1.20
2022-11-21T15:12:46.111Z,1.08
2022-11-21T15:15:02.714Z,1.20
2022-11-21T15:17:11.341Z,1.00
2022-11-21T15:19:23.703Z,1.30
2022-11-21T15:21:25.505Z,1.40
2022-11-21T15:23:31.268Z,1.47
2022-11-21T15:25:47.307Z,1.80
2022-11-21T15:27:51.410Z,1.50
2022-11-21T15:30:06.789Z,1.65
2022-11-21T15:32:16.857Z,1.42
2022-11-21T15:34:35.345Z,1.50
2022-11-21T15:36:37.828Z,1.55
2022-11-21T15:39:04.486Z,1.83
2022-11-21T15:41:09.219Z,1.95
2022-11-21T15:43:10.933Z,1.80
2022-11-21T15:45:20.372Z,2.40
2022-11-21T15:47:22.336Z,3.00
2022-11-21T15:49:32.791Z,4.80
2022-11-21T15:52:05.652Z,5.70
2022-11-21T15:53:59.173Z,5.55
2022-11-21T15:56:00.868Z,5.60
2022-11-21T15:58:02.627Z,4.40
2022-11-21T16:00:04.737Z,3.93
2022-11-21T16:02:06.765Z,3.15
2022-11-21T16:04:11.247Z,2.88
2022-11-21T16:06:13.002Z,2.63
2022-11-21T16:08:14.701Z,2.40
2022-11-21T16:10:21.355Z,3.40
2022-11-21T16:12:27.715Z,2.55
2022-11-21T16:14:29.391Z,2.60
2022-11-21T16:16:34.028Z,2.72
2022-11-21T16:18:35.804Z,2.10
2022-11-21T16:20:37.567Z,2.08
2022-11-21T16:22:44.179Z,1.70
2022-11-21T16:24:49.546Z,2.35
2022-11-21T16:28:57.584Z,2.60
2022-11-21T16:31:00.479Z,1.98
2022-11-21T16:33:02.581Z,2.30
2022-11-21T16:35:05.003Z,2.30
2022-11-21T16:37:07.717Z,2.28
2022-11-21T16:39:15.057Z,2.05
2022-11-21T16:41:21.936Z,2.17
2022-11-21T16:43:24.404Z,2.40
2022-11-21T16:45:26.161Z,2.63
2022-11-21T16:47:27.928Z,2.43
2022-11-21T16:49:29.919Z,2.50
2022-11-21T16:51:31.965Z,2.63
2022-11-21T16:53:33.693Z,2.30
2022-11-21T16:55:35.575Z,2.63
2022-11-21T16:57:37.380Z,2.58
2022-11-21T16:59:39.115Z,2.30
2022-11-21T17:01:41.066Z,2.25
2022-11-21T17:03:44.735Z,2.38
2022-11-21T17:05:59.715Z,2.22
2022-11-21T17:08:01.495Z,2.45
2022-11-21T17:10:03.377Z,2.10
2022-11-21T17:12:05.440Z,2.53
2022-11-21T17:14:08.307Z,2.22
2022-11-21T17:16:11.520Z,2.28
2022-11-21T17:18:13.248Z,2.22
2022-11-21T17:20:14.996Z,2.50
2022-11-21T17:22:20.189Z,3.03
2022-11-21T17:24:26.257Z,3.72
2022-11-21T17:26:29.970Z,3.03
2022-11-21T17:28:32.220Z,3.15
2022-11-21T17:30:35.330Z,2.95
2022-11-21T17:32:37.137Z,2.75
2022-11-21T17:34:39.361Z,3.22
2022-11-21T17:36:41.175Z,3.88
2022-11-21T17:38:43.947Z,4.30
2022-11-21T17:40:45.690Z,4.35
2022-11-21T17:42:47.442Z,5.07
2022-11-21T17:44:49.154Z,5.32
2022-11-21T17:46:50.935Z,5.37
2022-11-21T17:48:57.237Z,5.07
2022-11-21T17:51:07.878Z,5.20
2022-11-21T17:53:09.576Z,4.15
2022-11-21T17:55:11.469Z,4.27
2022-11-21T17:57:13.169Z,4.10
2022-11-21T17:59:14.942Z,3.50
2022-11-21T18:01:20.764Z,2.72
2022-11-21T18:03:23.265Z,2.60
2022-11-21T18:05:24.997Z,3.28
2022-11-21T18:07:26.852Z,3.50
2022-11-21T18:09:28.844Z,3.00
2022-11-21T18:11:39.216Z,2.75
2022-11-21T18:13:42.388Z,2.28
2022-11-21T18:15:44.152Z,2.38
2022-11-21T18:17:50.629Z,2.70
2022-11-21T18:19:56.629Z,2.53
2022-11-21T18:22:01.935Z,2.50
2022-11-21T18:24:05.142Z,2.42
2022-11-21T18:26:10.985Z,3.08
2022-11-21T18:28:19.427Z,2.65
2022-11-21T18:30:21.307Z,2.60
2022-11-21T18:32:23.009Z,2.45
2022-11-21T18:34:24.868Z,3.10
2022-11-21T18:36:27.900Z,3.30
2022-11-21T18:38:48.169Z,3.40
2022-11-21T18:40:51.187Z,3.05
2022-11-21T18:42:53.046Z,2.83
2022-11-21T18:44:54.833Z,2.40
2022-11-21T18:46:56.577Z,2.63
2022-11-21T18:49:05.967Z,2.97
2022-11-21T18:51:13.962Z,2.90
2022-11-21T18:53:16.555Z,2.92
2022-11-21T18:57:20.108Z,2.38
2022-11-21T18:59:21.912Z,3.08
2022-11-21T19:01:26.100Z,3.17
2022-11-21T19:03:27.866Z,3.13
2022-11-21T19:05:29.803Z,3.40
2022-11-21T19:07:31.618Z,3.17
2022-11-21T19:09:34.396Z,3.47
2022-11-21T19:11:36.369Z,2.70
2022-11-21T19:13:38.103Z,2.87
2022-11-21T19:15:39.944Z,2.97
2022-11-21T19:17:41.664Z,3.00
2022-11-21T19:19:44.435Z,2.77
2022-11-21T19:21:47.138Z,2.83
2022-11-21T19:23:49.035Z,2.67
2022-11-21T19:25:50.785Z,3.10
2022-11-21T19:27:52.544Z,2.92
2022-11-21T19:29:55.327Z,3.30
2022-11-21T19:31:57.164Z,2.72
2022-11-21T19:33:58.892Z,3.03
2022-11-21T19:36:11.394Z,2.47
2022-11-21T19:38:13.112Z,3.08
2022-11-21T19:40:14.849Z,3.30
2022-11-21T19:42:16.740Z,3.37
2022-11-21T19:44:18.512Z,3.38
2022-11-21T19:46:32.121Z,2.73
2022-11-21T19:48:34.252Z,3.58
2022-11-21T19:50:36.077Z,2.97
2022-11-21T19:52:37.779Z,3.22
2022-11-21T19:54:39.551Z,3.40
2022-11-21T19:56:41.299Z,3.70
2022-11-21T19:58:44.347Z,3.78
2022-11-21T20:00:46.286Z,3.63
2022-11-21T20:02:48.015Z,3.33
2022-11-21T20:04:49.771Z,3.13
2022-11-21T20:06:51.600Z,3.28
2022-11-21T20:09:05.235Z,3.05
2022-11-21T20:11:12.769Z,3.15
2022-11-21T20:13:14.480Z,2.67
2022-11-21T20:15:16.338Z,2.83
2022-11-21T20:17:18.059Z,2.35
2022-11-21T20:19:22.477Z,2.70
2022-11-21T20:21:24.499Z,2.90
2022-11-21T20:23:26.179Z,2.67
2022-11-21T20:25:27.882Z,2.80
2022-11-21T20:27:31.003Z,2.60
2022-11-21T20:29:32.743Z,2.75
2022-11-21T20:31:39.432Z,2.50
2022-11-21T20:33:43.712Z,3.25
2022-11-21T20:35:45.493Z,3.08
2022-11-21T20:37:47.206Z,3.08
2022-11-21T20:39:49.004Z,2.70
2022-11-21T20:41:50.801Z,2.90
2022-11-21T20:46:20.700Z,2.70
2022-11-21T20:48:22.739Z,2.80
2022-11-21T20:51:01.385Z,3.15
2022-11-21T20:55:10.278Z,3.20
2022-11-21T20:59:29.176Z,3.00
2022-11-21T21:01:32.316Z,2.70
2022-11-21T21:03:39.705Z,2.72
2022-11-21T21:05:44.823Z,2.53
2022-11-21T21:07:46.591Z,2.42
2022-11-21T21:09:49.912Z,2.65
2022-11-21T21:11:56.165Z,2.63
2022-11-21T21:13:58.135Z,2.47
2022-11-21T21:16:12.261Z,2.50
2022-11-21T21:18:14.091Z,2.30
2022-11-21T21:20:16.229Z,2.50
2022-11-21T21:22:17.996Z,2.75
2022-11-21T21:24:19.816Z,2.58
2022-11-21T21:26:24.108Z,2.80
2022-11-21T21:28:25.944Z,2.80
2022-11-21T21:30:28.011Z,2.50
2022-11-21T21:32:29.733Z,3.20
2022-11-21T21:34:32.567Z,3.20
2022-11-21T21:36:34.660Z,3.70
2022-11-21T21:38:37.218Z,3.27
2022-11-21T21:40:38.925Z,3.90
2022-11-21T21:44:43.041Z,4.03
2022-11-21T21:46:45.088Z,3.87
2022-11-21T21:48:47.297Z,4.22
2022-11-21T21:50:49.006Z,3.80
2022-11-21T21:52:50.728Z,3.50
2022-11-21T21:54:52.458Z,4.00
2022-11-21T21:56:54.261Z,4.53
2022-11-21T21:58:59.199Z,4.00
2022-11-21T22:01:07.932Z,3.72
2022-11-21T22:03:09.639Z,3.25
2022-11-21T22:05:11.393Z,4.03
2022-11-21T22:07:13.148Z,3.42
2022-11-21T22:09:14.932Z,3.45
2022-11-21T22:11:22.151Z,3.20
2022-11-21T22:13:23.852Z,3.42
2022-11-21T22:15:25.557Z,3.17
2022-11-21T22:17:27.298Z,3.70
2022-11-21T22:19:29.405Z,3.65
2022-11-21T22:21:33.454Z,3.10
2022-11-21T22:23:35.170Z,3.17
2022-11-21T22:25:36.838Z,3.67
2022-11-21T22:27:38.620Z,3.10
2022-11-21T22:29:40.286Z,3.20
2022-11-21T22:31:41.944Z,2.83
2022-11-21T22:33:44.916Z,2.70
2022-11-21T22:35:46.621Z,2.97
2022-11-21T22:37:51.955Z,3.10
2022-11-21T22:39:53.896Z,3.15
2022-11-21T22:41:59.687Z,3.33
2022-11-21T22:44:01.796Z,3.08
2022-11-21T22:46:04.931Z,2.92
2022-11-21T22:48:06.826Z,3.08
2022-11-21T22:50:08.933Z,3.50
2022-11-21T22:52:10.698Z,3.75
2022-11-21T22:54:12.996Z,3.45
2022-11-21T22:56:17.454Z,3.72
2022-11-21T22:58:19.183Z,3.38
2022-11-21T23:00:20.980Z,3.67
2022-11-21T23:02:22.924Z,3.53
2022-11-21T23:04:24.697Z,3.10
2022-11-21T23:06:27.196Z,3.93
2022-11-21T23:08:29.944Z,3.60
2022-11-21T23:10:31.888Z,3.30
2022-11-21T23:12:33.588Z,3.60
2022-11-21T23:14:35.364Z,4.20
2022-11-21T23:16:37.116Z,4.00
2022-11-21T23:18:39.307Z,4.37
2022-11-21T23:20:43.372Z,3.05
2022-11-21T23:22:45.221Z,3.22
2022-11-21T23:24:46.952Z,3.47
2022-11-21T23:26:48.666Z,3.57
2022-11-21T23:28:50.424Z,4.00
2022-11-21T23:30:52.127Z,3.88
2022-11-21T23:32:53.792Z,3.73
2022-11-21T23:34:55.494Z,3.97
2022-11-21T23:36:57.216Z,3.97
2022-11-21T23:38:58.965Z,3.73
2022-11-21T23:41:00.670Z,3.95
2022-11-21T23:43:02.415Z,3.90
2022-11-21T23:45:04.521Z,3.90
2022-11-21T23:47:06.221Z,3.65
2022-11-21T23:49:07.922Z,3.83
2022-11-21T23:51:10.749Z,4.03
2022-11-21T23:53:12.692Z,3.92
2022-11-21T23:55:15.440Z,4.22
2022-11-21T23:57:17.128Z,4.30
2022-11-21T23:59:18.848Z,4.43
